Oregon State Flying Club

The Oregon State Flying Club is a non-profit organization committed to providing safe and inexpensive flying to the Oregon State University and Linn-Benton Community College communities. The Club currently owns three aircraft based at the Corvallis Airport for training, travel, and recreational purposes. Founded in 1952 and incorporated in 1956 the OSFC is one of the oldest continuously active flying clubs in the United States.

News & Announcements

Monthly Board Meeting

Next Meeting: Thursday, June 2, 6pm, @ CVO

Current METAR KCVO

Raw METAR:  KCVO 300435Z 30009KT 10SM 14/07 A3020 RMK AO1

This is a report for Corvallis Municipal Automatic Weather Observing / Reporting System, United States. The report was made 11 minutes ago, at 04:35 UTC. The wind was blowing at a speed of 10.4 miles per hour (4.6 meters per second) from west/northwest (300°). The temperature was 57 °F (14 °C), with a dew-point at 45 °F (7 °C). The atmospheric pressure was 30.20 inHg (1023 hPa). The relative humidity was 62.7%. The overall visibility was 10.0 miles (16.1 kilometers).